Time;durP1;ratioP1;P1;durP2;ratioP2;P2;SDS_P1;SDS_P2;PMS_P1;PMS_P2;Temp;Humidity;BMP_temperature;BMP_pressure;BME280_temperature;BME280_humidity;BME280_pressure;Samples;Min_cycle;Max_cycle;Signal;HPM_P1;HPM_P2
2022/12/15 00:40:16;;;;;;;28.35;11.63;;;-3.00;72.20;;;;;;4223619;28;20038;-83
2022/12/15 00:42:35;;;;;;;27.75;11.27;;;-3.00;72.30;;;;;;4217316;28;20046;-84
2022/12/15 00:44:55;;;;;;;35.40;12.55;;;-3.00;72.50;;;;;;4215930;28;20597;-84
2022/12/15 00:47:14;;;;;;;29.27;11.52;;;-3.00;72.90;;;;;;4214978;28;20039;-84
2022/12/15 01:21:12;;;;;;;28.83;11.40;;;-2.70;73.40;;;;;;4209603;28;20042;-84
2022/12/15 01:23:32;;;;;;;24.67;11.98;;;-2.70;73.50;;;;;;4206771;28;20358;-84
2022/12/15 01:25:52;;;;;;;26.38;10.95;;;-2.70;73.70;;;;;;4202531;28;20483;-84
2022/12/15 01:28:11;;;;;;;26.63;11.43;;;-2.70;73.70;;;;;;4210434;28;20081;-84
2022/12/15 01:30:30;;;;;;;27.08;12.45;;;-2.70;73.50;;;;;;4206175;28;20038;-84
2022/12/15 01:32:49;;;;;;;22.42;10.70;;;-2.70;73.70;;;;;;4208318;28;20085;-84
2022/12/15 01:35:10;;;;;;;22.25;10.13;;;-2.60;73.90;;;;;;4208492;28;20039;-83
2022/12/15 01:37:29;;;;;;;25.73;11.30;;;-2.70;74.10;;;;;;4212436;28;20051;-86
2022/12/15 01:42:27;;;;;;;21.58;10.35;;;-2.70;73.80;;;;;;4204709;28;21568;-86
2022/12/15 01:44:49;;;;;;;23.60;10.57;;;-2.70;74.20;;;;;;4209185;28;20042;-86
2022/12/15 01:47:12;;;;;;;23.52;11.40;;;-2.70;74.10;;;;;;4206923;28;20058;-86
2022/12/15 01:49:31;;;;;;;22.65;10.52;;;-2.60;74.30;;;;;;4207297;28;20039;-87
2022/12/15 01:51:55;;;;;;;21.90;10.55;;;-2.60;74.50;;;;;;4204039;28;20157;-85
2022/12/15 01:54:18;;;;;;;24.88;10.20;;;-2.60;74.40;;;;;;4210150;28;20095;-87
2022/12/15 01:56:43;;;;;;;23.67;9.80;;;-2.60;74.50;;;;;;4211285;28;20035;-87
2022/12/15 01:59:06;;;;;;;25.63;10.85;;;-2.60;74.70;;;;;;4224353;28;20038;-85
2022/12/15 02:01:25;;;;;;;19.42;9.05;;;-2.50;74.90;;;;;;4209406;28;20031;-85
2022/12/15 02:03:46;;;;;;;22.48;9.85;;;-2.50;74.80;;;;;;4213472;28;20431;-85
2022/12/15 02:06:06;;;;;;;20.60;10.68;;;-2.50;74.80;;;;;;4209063;27;20031;-85
2022/12/15 02:08:26;;;;;;;21.08;10.63;;;-2.50;75.10;;;;;;4208326;27;20096;-85
2022/12/15 02:10:54;;;;;;;24.75;10.55;;;-2.40;75.10;;;;;;4210266;27;20136;-86
2022/12/15 02:13:23;;;;;;;25.45;10.60;;;-2.40;75.10;;;;;;4228890;27;20126;-86
2022/12/15 02:15:48;;;;;;;24.20;10.10;;;-2.30;75.00;;;;;;4213657;28;20047;-87
2022/12/15 02:18:43;;;;;;;27.23;10.25;;;-2.30;74.80;;;;;;4217124;27;20636;-86
2022/12/15 02:21:21;;;;;;;26.35;10.48;;;-2.30;74.80;;;;;;4220474;28;20042;-87
2022/12/15 02:23:59;;;;;;;20.67;10.25;;;-2.30;74.70;;;;;;4213792;28;20051;-86
2022/12/15 02:26:25;;;;;;;24.73;9.45;;;-2.30;74.70;;;;;;4221023;28;20434;-86
2022/12/15 02:29:21;;;;;;;22.27;9.98;;;-2.30;74.60;;;;;;4218476;28;20031;-85
2022/12/15 02:31:56;;;;;;;25.25;10.68;;;-2.20;74.60;;;;;;4215236;28;20101;-86
2022/12/15 02:34:43;;;;;;;27.90;11.00;;;-2.20;74.80;;;;;;4210842;28;20038;-86
2022/12/15 02:37:09;;;;;;;28.55;11.65;;;-2.20;74.70;;;;;;4214098;28;20128;-85
2022/12/15 02:39:28;;;;;;;25.00;11.00;;;-2.20;74.70;;;;;;4213820;28;20510;-85
2022/12/15 02:41:50;;;;;;;20.83;10.15;;;-2.20;74.90;;;;;;4212643;27;20043;-85
2022/12/15 02:44:37;;;;;;;27.30;11.00;;;-2.20;74.70;;;;;;4212919;28;20093;-85
2022/12/15 02:47:36;;;;;;;20.83;10.10;;;-2.20;74.70;;;;;;4217395;27;20115;-86
2022/12/15 02:50:07;;;;;;;22.23;10.73;;;-2.20;74.60;;;;;;4212093;28;20149;-85
2022/12/15 02:52:32;;;;;;;25.75;10.77;;;-2.20;75.60;;;;;;4211350;28;20038;-86
2022/12/15 02:55:19;;;;;;;24.90;10.88;;;-2.20;74.80;;;;;;4215315;28;20044;-85
2022/12/15 02:57:48;;;;;;;22.13;9.77;;;-2.20;75.10;;;;;;4214191;28;20046;-86
2022/12/15 03:00:10;;;;;;;20.20;9.57;;;-2.20;75.40;;;;;;4216290;27;20049;-86
2022/12/15 03:02:33;;;;;;;23.77;10.05;;;-2.20;75.40;;;;;;4216802;28;20121;-88
2022/12/15 03:04:52;;;;;;;19.02;8.80;;;-2.20;75.40;;;;;;4226264;27;20096;-86
2022/12/15 03:07:13;;;;;;;23.77;10.30;;;-2.20;75.40;;;;;;4209231;28;20071;-87
2022/12/15 03:09:33;;;;;;;21.88;9.90;;;-2.20;75.50;;;;;;4215102;27;20081;-84
2022/12/15 03:11:52;;;;;;;21.17;10.05;;;-2.10;75.50;;;;;;4216658;27;21076;-84
2022/12/15 03:14:11;;;;;;;21.35;10.30;;;-2.10;76.60;;;;;;4215196;28;20519;-84
2022/12/15 03:16:30;;;;;;;21.75;9.98;;;-2.10;75.90;;;;;;4210173;27;21419;-84
2022/12/15 03:18:50;;;;;;;21.48;9.35;;;-2.10;75.50;;;;;;4210236;28;20042;-84
2022/12/15 03:21:09;;;;;;;20.60;9.82;;;-2.10;75.40;;;;;;4208120;28;20042;-83
2022/12/15 03:23:28;;;;;;;23.90;10.05;;;-2.00;75.10;;;;;;4214350;28;20096;-82
2022/12/15 03:25:48;;;;;;;20.77;9.50;;;-2.00;75.30;;;;;;4215813;27;20138;-82
2022/12/15 03:28:07;;;;;;;19.80;9.45;;;-2.00;75.40;;;;;;4210588;28;20106;-82
2022/12/15 03:30:26;;;;;;;24.63;11.10;;;-2.00;75.50;;;;;;4212696;28;20070;-83
2022/12/15 03:32:46;;;;;;;23.08;9.93;;;-2.00;75.50;;;;;;4215692;27;20043;-83
2022/12/15 03:35:06;;;;;;;20.00;9.65;;;-2.00;75.50;;;;;;4214091;28;20039;-83
2022/12/15 03:37:25;;;;;;;19.42;9.32;;;-2.00;75.70;;;;;;4216059;27;20042;-83
2022/12/15 03:39:44;;;;;;;22.08;10.30;;;-2.00;75.70;;;;;;4211505;28;20724;-81
2022/12/15 03:42:03;;;;;;;29.23;9.88;;;-2.00;75.70;;;;;;4210885;28;20587;-84
2022/12/15 03:44:23;;;;;;;21.42;9.77;;;-2.00;75.60;;;;;;4212760;28;20498;-83
2022/12/15 03:46:41;;;;;;;20.27;9.35;;;-2.00;75.60;;;;;;4223832;28;20039;-82
2022/12/15 03:49:00;;;;;;;23.52;10.45;;;-2.00;75.70;;;;;;4214440;28;20140;-83
2022/12/15 03:51:20;;;;;;;25.40;10.52;;;-2.00;75.60;;;;;;4214567;28;20525;-83
2022/12/15 03:53:39;;;;;;;25.10;11.07;;;-1.90;75.80;;;;;;4213732;28;20309;-83
2022/12/15 03:55:58;;;;;;;20.48;9.65;;;-1.90;75.90;;;;;;4214085;28;20047;-82
2022/12/15 03:58:18;;;;;;;22.55;10.48;;;-2.00;75.80;;;;;;4214251;28;20046;-82
2022/12/15 04:00:38;;;;;;;24.20;10.73;;;-2.00;75.70;;;;;;4217584;28;20042;-84
2022/12/15 04:02:57;;;;;;;22.08;10.25;;;-1.90;75.90;;;;;;4225969;28;20115;-83
2022/12/15 04:05:35;;;;;;;22.83;10.30;;;-1.90;76.00;;;;;;4215605;27;20064;-82
2022/12/15 04:07:56;;;;;;;23.42;10.95;;;-1.90;75.80;;;;;;4217629;28;20190;-84
2022/12/15 04:10:15;;;;;;;25.50;10.07;;;-1.90;75.90;;;;;;4217004;28;20092;-84
2022/12/15 04:12:34;;;;;;;25.52;10.77;;;-1.90;75.80;;;;;;4216421;27;20453;-84
2022/12/15 04:14:53;;;;;;;24.10;10.40;;;-1.90;75.60;;;;;;4214046;28;20051;-84
2022/12/15 04:17:13;;;;;;;20.35;10.32;;;-1.90;75.50;;;;;;4218653;28;20105;-83
2022/12/15 04:22:11;;;;;;;21.65;9.60;;;-1.90;75.30;;;;;;4216089;28;20092;-85
2022/12/15 05:33:06;;;;;;;43.22;14.48;;;-2.80;74.60;;;;;;4209377;28;20055;-82
2022/12/15 05:35:25;;;;;;;75.47;17.48;;;-2.80;75.00;;;;;;4208152;28;20041;-83
2022/12/15 05:37:45;;;;;;;124.05;33.33;;;-2.80;75.00;;;;;;4211681;28;20049;-82
2022/12/15 05:40:08;;;;;;;190.10;39.97;;;-2.80;75.10;;;;;;4210698;28;20055;-92
2022/12/15 05:42:27;;;;;;;194.95;54.28;;;-2.80;75.20;;;;;;4211442;28;20144;-82
2022/12/15 05:44:46;;;;;;;286.77;72.60;;;-2.80;75.40;;;;;;4207432;28;20034;-82
2022/12/15 05:47:07;;;;;;;195.27;48.40;;;-2.80;76.10;;;;;;4206280;28;20074;-82
2022/12/15 05:49:26;;;;;;;167.32;35.10;;;-2.80;75.50;;;;;;4211206;28;20039;-82
2022/12/15 05:51:46;;;;;;;197.48;38.80;;;-2.80;75.60;;;;;;4214408;28;20042;-82
2022/12/15 05:54:08;;;;;;;79.47;27.00;;;-2.70;75.70;;;;;;4214059;28;20400;-81
2022/12/15 05:56:28;;;;;;;161.85;83.75;;;-2.70;75.70;;;;;;4214742;28;20081;-82
2022/12/15 05:58:47;;;;;;;60.85;21.80;;;-2.70;75.80;;;;;;4210831;28;20127;-82
2022/12/15 06:01:09;;;;;;;55.67;19.27;;;-2.70;76.00;;;;;;4215043;28;20065;-82
2022/12/15 06:03:25;;;;;;;39.70;15.38;;;-2.60;76.20;;;;;;4215911;28;20506;-82
2022/12/15 06:05:44;;;;;;;48.90;15.38;;;-2.70;76.00;;;;;;4214534;28;20032;-82
2022/12/15 06:08:03;;;;;;;40.30;15.35;;;-2.60;76.10;;;;;;4215218;28;20117;-83
2022/12/15 06:10:23;;;;;;;40.08;15.63;;;-2.60;76.20;;;;;;4216201;28;20111;-83
2022/12/15 06:12:42;;;;;;;41.42;14.15;;;-2.60;76.30;;;;;;4214308;28;20084;-82
2022/12/15 06:15:02;;;;;;;38.97;14.93;;;-2.50;76.30;;;;;;4210587;28;20040;-82
2022/12/15 06:17:22;;;;;;;35.35;15.18;;;-2.50;76.30;;;;;;4211147;28;20050;-83
2022/12/15 06:19:22;;;;;;;32.58;14.23;;;-2.50;76.30;;;;;;4215006;28;20499;-82
2022/12/15 06:21:29;;;;;;;37.15;16.35;;;-2.50;76.30;;;;;;4212513;28;20035;-84
2022/12/15 06:23:31;;;;;;;40.30;16.90;;;-2.40;76.30;;;;;;4214436;28;20027;-83
2022/12/15 06:25:32;;;;;;;48.55;16.80;;;-2.40;76.30;;;;;;4215048;28;20047;-82
2022/12/15 06:27:35;;;;;;;42.45;16.85;;;-2.40;76.20;;;;;;4214694;28;20020;-82
2022/12/15 06:29:35;;;;;;;41.47;16.48;;;-2.40;76.20;;;;;;4212790;28;20036;-83
2022/12/15 06:31:38;;;;;;;37.45;16.60;;;-2.40;76.30;;;;;;4213161;28;20042;-83
2022/12/15 06:33:38;;;;;;;37.37;15.93;;;-2.30;76.30;;;;;;4214425;28;20144;-83
2022/12/15 06:35:39;;;;;;;37.42;14.55;;;-2.30;76.40;;;;;;4213676;28;20065;-83
2022/12/15 06:37:39;;;;;;;38.55;16.50;;;-2.30;77.10;;;;;;4213332;28;20025;-83
2022/12/15 06:39:40;;;;;;;35.55;14.90;;;-2.30;76.40;;;;;;4217056;28;20039;-83
2022/12/15 06:41:42;;;;;;;41.35;16.52;;;-2.40;76.30;;;;;;4217236;28;20032;-83
2022/12/15 06:43:48;;;;;;;52.03;19.20;;;-2.30;76.30;;;;;;4214504;28;20395;-82
2022/12/15 06:45:50;;;;;;;53.50;20.83;;;-2.20;76.60;;;;;;4224057;28;20024;-83
2022/12/15 06:47:50;;;;;;;42.30;17.65;;;-2.20;76.60;;;;;;4217040;28;20030;-83
2022/12/15 06:49:51;;;;;;;41.03;16.88;;;-2.20;76.40;;;;;;4217036;28;20035;-83
2022/12/15 06:51:52;;;;;;;38.78;16.80;;;-2.20;76.40;;;;;;4218721;28;20028;-82
2022/12/15 06:53:52;;;;;;;43.67;17.13;;;-2.20;76.40;;;;;;4217110;28;20035;-82
2022/12/15 06:56:02;;;;;;;49.78;17.95;;;-2.20;76.40;;;;;;4219766;28;20034;-82
2022/12/15 06:58:03;;;;;;;42.58;16.42;;;-2.20;76.40;;;;;;4214607;28;20388;-82
2022/12/15 07:00:05;;;;;;;47.92;16.50;;;-2.20;76.40;;;;;;4219223;27;20031;-82
2022/12/15 07:02:15;;;;;;;37.30;15.32;;;-2.10;76.40;;;;;;4227771;28;20627;-83
2022/12/15 07:04:16;;;;;;;44.30;15.80;;;-2.20;76.40;;;;;;4216983;28;20095;-82
2022/12/15 07:06:17;;;;;;;44.53;16.23;;;-2.20;76.40;;;;;;4221508;28;20016;-82
2022/12/15 07:08:17;;;;;;;42.40;16.92;;;-2.10;76.50;;;;;;4207795;28;20492;-83
2022/12/15 07:10:18;;;;;;;55.03;17.42;;;-2.10;76.60;;;;;;4216956;27;20027;-83
2022/12/15 07:12:19;;;;;;;41.72;16.30;;;-2.10;76.70;;;;;;4215177;28;20081;-82
2022/12/15 07:14:19;;;;;;;43.92;15.48;;;-2.00;76.70;;;;;;4221095;28;20028;-83
2022/12/15 07:16:22;;;;;;;43.55;15.98;;;-2.00;76.70;;;;;;4216420;28;20040;-82
2022/12/15 07:18:22;;;;;;;44.83;16.45;;;-2.00;76.80;;;;;;4219599;27;20055;-82
2022/12/15 07:20:23;;;;;;;49.38;17.05;;;-2.00;76.80;;;;;;4218564;28;20027;-81
2022/12/15 07:22:24;;;;;;;43.67;16.88;;;-2.00;76.80;;;;;;4213166;28;20129;-82
2022/12/15 07:24:25;;;;;;;50.88;18.38;;;-1.90;76.90;;;;;;4217979;28;20497;-82
2022/12/15 07:26:26;;;;;;;49.88;17.98;;;-1.90;76.90;;;;;;4213361;28;20202;-82
2022/12/15 07:28:27;;;;;;;61.47;20.75;;;-1.90;77.00;;;;;;4216336;28;20045;-82
2022/12/15 07:30:27;;;;;;;73.63;24.98;;;-1.90;77.00;;;;;;4213117;27;20028;-82
2022/12/15 07:32:28;;;;;;;72.75;24.20;;;-1.90;76.90;;;;;;4216852;28;20020;-82
2022/12/15 07:34:28;;;;;;;60.28;20.92;;;-1.90;76.80;;;;;;4215272;28;20024;-82
2022/12/15 07:36:29;;;;;;;53.70;19.48;;;-1.80;76.90;;;;;;4217059;28;20036;-82
2022/12/15 07:38:30;;;;;;;56.90;20.30;;;-1.80;76.90;;;;;;4218247;28;20040;-84
2022/12/15 07:40:30;;;;;;;57.38;19.98;;;-1.80;76.90;;;;;;4221765;27;20023;-82
2022/12/15 07:42:31;;;;;;;60.03;19.70;;;-1.80;77.00;;;;;;4223213;28;20372;-83
2022/12/15 07:44:32;;;;;;;68.57;20.58;;;-1.80;77.10;;;;;;4216829;28;20028;-83
2022/12/15 07:46:32;;;;;;;57.80;20.73;;;-1.80;77.00;;;;;;4223459;27;20028;-84
2022/12/15 07:48:35;;;;;;;60.97;21.42;;;-1.80;77.10;;;;;;4202464;28;20536;-83
2022/12/15 07:50:39;;;;;;;57.92;19.63;;;-1.70;77.10;;;;;;4217532;27;20031;-85
2022/12/15 07:52:50;;;;;;;55.83;20.20;;;-1.70;77.10;;;;;;4218102;28;20019;-83
2022/12/15 07:55:10;;;;;;;48.90;18.70;;;-1.70;77.10;;;;;;4218262;27;20032;-83
2022/12/15 07:57:31;;;;;;;50.13;19.60;;;-1.70;77.10;;;;;;4222451;28;20023;-84
2022/12/15 07:59:52;;;;;;;46.70;17.52;;;-1.60;77.10;;;;;;4225373;28;20027;-83
2022/12/15 08:02:13;;;;;;;46.42;17.23;;;-1.60;77.10;;;;;;4221254;27;20448;-84
2022/12/15 08:04:34;;;;;;;50.97;17.90;;;-1.60;77.10;;;;;;4222020;28;20040;-83
2022/12/15 08:06:55;;;;;;;40.60;16.30;;;-1.60;77.10;;;;;;4221405;28;20055;-84
2022/12/15 08:09:15;;;;;;;36.50;15.95;;;-1.60;77.10;;;;;;4219254;28;20040;-83
2022/12/15 08:11:36;;;;;;;46.20;18.73;;;-1.50;77.20;;;;;;4224122;28;20039;-82
2022/12/15 08:13:56;;;;;;;39.28;16.67;;;-1.50;77.20;;;;;;4221033;28;20040;-84
2022/12/15 08:16:18;;;;;;;46.92;17.42;;;-1.50;77.20;;;;;;4222614;28;20650;-84
2022/12/15 08:18:38;;;;;;;44.45;17.23;;;-1.40;77.30;;;;;;4220990;27;20207;-84
2022/12/15 08:21:04;;;;;;;46.28;17.00;;;-1.40;77.30;;;;;;4219144;28;20036;-84
2022/12/15 08:23:25;;;;;;;50.40;18.88;;;-1.40;77.30;;;;;;4219892;27;20039;-82
2022/12/15 08:25:46;;;;;;;48.25;19.50;;;-1.40;77.30;;;;;;4221252;28;20036;-81
2022/12/15 08:28:07;;;;;;;48.90;18.95;;;-1.30;78.10;;;;;;4218260;28;20031;-83
2022/12/15 08:30:27;;;;;;;58.97;18.05;;;-1.30;77.50;;;;;;4212627;28;20027;-81
2022/12/15 08:32:48;;;;;;;44.72;17.20;;;-1.30;77.40;;;;;;4218251;28;20040;-82
2022/12/15 08:35:09;;;;;;;50.30;17.98;;;-1.30;77.40;;;;;;4231409;27;20031;-82
2022/12/15 08:37:30;;;;;;;47.53;17.05;;;-1.20;77.40;;;;;;4219435;28;20032;-82
2022/12/15 08:39:50;;;;;;;45.75;16.98;;;-1.20;77.40;;;;;;4218762;28;20060;-82
2022/12/15 08:42:11;;;;;;;50.85;17.20;;;-1.20;77.40;;;;;;4222468;28;20039;-82
2022/12/15 08:44:32;;;;;;;50.05;17.83;;;-1.20;77.50;;;;;;4220945;28;20040;-83
2022/12/15 08:46:52;;;;;;;47.78;18.00;;;-1.10;77.50;;;;;;4217027;28;20031;-82
2022/12/15 08:49:13;;;;;;;43.47;16.95;;;-1.10;77.60;;;;;;4215972;27;20036;-82
2022/12/15 08:51:34;;;;;;;42.28;15.88;;;-1.10;77.50;;;;;;4210247;28;20032;-82
2022/12/15 08:53:56;;;;;;;50.90;18.80;;;-1.00;77.50;;;;;;4211707;28;20035;-83
2022/12/15 08:56:19;;;;;;;46.25;17.42;;;-1.00;77.60;;;;;;4214970;27;20046;-81
2022/12/15 08:58:40;;;;;;;43.47;16.52;;;-1.00;77.60;;;;;;4218134;28;20052;-82
2022/12/15 09:01:03;;;;;;;54.83;19.00;;;-0.90;77.80;;;;;;4218182;28;20040;-82
2022/12/15 09:03:23;;;;;;;50.33;17.20;;;-0.90;77.90;;;;;;4219884;27;20073;-82
2022/12/15 09:05:44;;;;;;;52.00;17.52;;;-0.90;77.80;;;;;;4215636;28;20361;-83
2022/12/15 09:08:05;;;;;;;65.30;21.00;;;-0.80;77.70;;;;;;4210083;28;20866;-83
2022/12/15 09:10:26;;;;;;;68.00;21.38;;;-0.80;78.10;;;;;;4214610;28;20028;-81
2022/12/15 09:12:46;;;;;;;70.53;20.88;;;-0.80;78.20;;;;;;4215494;28;20032;-82
2022/12/15 09:15:07;;;;;;;68.95;19.30;;;-0.80;77.90;;;;;;4217817;28;20034;-83
2022/12/15 09:17:28;;;;;;;49.95;16.98;;;-0.80;77.90;;;;;;4214969;28;20036;-83
2022/12/15 09:19:49;;;;;;;51.83;17.58;;;-0.70;77.70;;;;;;4213300;28;20024;-82
2022/12/15 09:22:09;;;;;;;55.63;18.45;;;-0.70;77.60;;;;;;4210134;27;20032;-83
2022/12/15 09:24:30;;;;;;;48.13;17.35;;;-0.60;77.70;;;;;;4211465;28;20111;-82
2022/12/15 09:26:50;;;;;;;46.67;16.40;;;-0.70;77.60;;;;;;4214497;28;20066;-83
2022/12/15 09:29:12;;;;;;;48.70;18.50;;;-0.60;78.60;;;;;;4215005;28;20062;-83
2022/12/15 09:31:35;;;;;;;44.70;16.73;;;-0.60;77.90;;;;;;4213173;28;20034;-82
2022/12/15 09:33:56;;;;;;;54.13;18.30;;;-0.50;78.10;;;;;;4209785;28;20074;-82
2022/12/15 09:36:16;;;;;;;54.90;18.95;;;-0.50;78.20;;;;;;4216391;28;20593;-83
2022/12/15 09:38:39;;;;;;;55.10;20.58;;;-0.40;78.30;;;;;;4217071;28;20036;-82
2022/12/15 09:41:26;;;;;;;65.55;22.20;;;-0.40;78.40;;;;;;4216542;28;20407;-83
2022/12/15 09:44:11;;;;;;;64.35;22.60;;;-0.30;78.50;;;;;;4213498;28;20042;-82
2022/12/15 09:47:11;;;;;;;66.22;24.60;;;-0.20;78.70;;;;;;4217985;28;20518;-83
2022/12/15 09:49:40;;;;;;;66.45;25.50;;;-0.20;78.60;;;;;;4220099;28;20043;-82
2022/12/15 09:52:08;;;;;;;64.25;24.88;;;-0.10;78.50;;;;;;4214011;28;20078;-83
2022/12/15 09:54:31;;;;;;;66.93;26.20;;;-0.10;78.40;;;;;;4216022;28;20579;-83
2022/12/15 09:56:54;;;;;;;71.22;26.67;;;0.00;78.30;;;;;;4216743;28;20075;-83
2022/12/15 09:59:36;;;;;;;77.60;29.92;;;0.10;78.30;;;;;;4218225;28;20038;-83
2022/12/15 10:02:11;;;;;;;79.28;31.67;;;0.10;78.30;;;;;;4217164;28;20145;-83
2022/12/15 10:04:52;;;;;;;68.75;25.75;;;0.20;78.40;;;;;;4212262;28;20089;-83
2022/12/15 10:07:27;;;;;;;64.32;26.02;;;0.20;78.40;;;;;;4219637;28;20119;-84
2022/12/15 10:09:46;;;;;;;64.60;24.42;;;0.30;78.30;;;;;;4213432;28;20039;-83
2022/12/15 10:12:45;;;;;;;54.83;22.08;;;0.30;78.20;;;;;;4217071;28;20104;-84
2022/12/15 10:15:09;;;;;;;55.35;21.08;;;0.40;78.30;;;;;;4200400;28;20035;-83
2022/12/15 10:17:28;;;;;;;;;;;0.40;78.30;;;;;;4200682;28;20074;-84
2022/12/15 10:19:54;;;;;;;39.70;14.77;;;0.50;78.90;;;;;;4205592;28;20346;-83
2022/12/15 10:22:25;;;;;;;35.60;14.95;;;0.50;78.20;;;;;;4201828;28;20035;-83
2022/12/15 10:24:44;;;;;;;32.17;14.10;;;0.60;78.10;;;;;;4209290;28;20100;-83
2022/12/15 10:27:31;;;;;;;33.10;13.93;;;0.60;78.00;;;;;;4212451;28;20251;-82
2022/12/15 10:30:10;;;;;;;34.13;14.80;;;0.70;78.00;;;;;;4207548;28;20086;-82
2022/12/15 10:32:49;;;;;;;41.75;16.38;;;0.70;77.90;;;;;;4207583;28;20047;-84
2022/12/15 10:35:17;;;;;;;42.20;17.25;;;0.70;77.80;;;;;;4198226;28;20122;-84
2022/12/15 10:37:38;;;;;;;46.40;19.27;;;0.70;77.60;;;;;;4210014;28;20123;-83
2022/12/15 10:39:57;;;;;;;63.40;27.08;;;0.70;77.60;;;;;;4211104;28;20034;-83
2022/12/15 10:42:24;;;;;;;62.05;25.13;;;0.70;77.70;;;;;;4194386;28;20086;-83
2022/12/15 10:44:49;;;;;;;51.53;22.13;;;0.70;77.10;;;;;;4205348;28;20047;-83
2022/12/15 10:47:15;;;;;;;43.88;18.00;;;0.70;76.60;;;;;;4192633;28;20044;-83
2022/12/15 10:49:35;;;;;;;42.63;18.88;;;0.70;76.60;;;;;;4218481;27;20591;-83
2022/12/15 10:51:57;;;;;;;40.88;18.00;;;0.70;76.70;;;;;;4220369;28;20042;-83
2022/12/15 10:54:17;;;;;;;39.78;17.02;;;0.70;76.70;;;;;;4219019;28;20043;-84
2022/12/15 10:56:53;;;;;;;38.83;17.05;;;0.70;76.70;;;;;;4221631;28;20134;-83
2022/12/15 10:59:35;;;;;;;32.40;15.55;;;0.60;76.70;;;;;;4221915;28;20043;-83
2022/12/15 11:01:54;;;;;;;33.45;15.38;;;0.60;76.80;;;;;;4233931;27;20035;-83
2022/12/15 11:04:31;;;;;;;32.42;14.75;;;0.60;76.80;;;;;;4215994;28;20815;-83
2022/12/15 11:06:56;;;;;;;35.72;14.80;;;0.60;76.80;;;;;;4220385;28;20078;-83
2022/12/15 11:09:27;;;;;;;35.95;15.27;;;0.60;76.90;;;;;;4216675;28;20070;-83
2022/12/15 11:14:38;;;;;;;28.35;13.48;;;0.60;77.10;;;;;;4218044;28;20070;-83
2022/12/15 11:16:58;;;;;;;31.00;13.15;;;0.60;77.20;;;;;;4222008;27;20047;-82
2022/12/15 11:19:39;;;;;;;31.90;13.45;;;0.70;77.30;;;;;;4217557;28;20531;-83
2022/12/15 11:22:22;;;;;;;28.20;12.75;;;0.70;77.50;;;;;;4214712;28;20400;-83
2022/12/15 11:24:52;;;;;;;28.98;12.80;;;0.80;77.70;;;;;;4217953;28;20109;-83
2022/12/15 11:27:27;;;;;;;27.02;12.93;;;0.80;77.90;;;;;;4222586;28;20030;-84
2022/12/15 11:30:12;;;;;;;27.92;12.50;;;0.90;78.10;;;;;;4213238;28;20404;-83
2022/12/15 11:32:33;;;;;;;26.25;12.07;;;1.00;78.80;;;;;;4214720;27;20031;-83
2022/12/15 11:34:54;;;;;;;25.08;12.07;;;1.00;78.00;;;;;;4222935;28;20047;-83
2022/12/15 11:37:38;;;;;;;33.53;15.60;;;1.10;78.00;;;;;;4218561;27;20055;-83
2022/12/15 11:40:29;;;;;;;31.38;15.00;;;1.10;78.10;;;;;;4218440;28;20042;-83
2022/12/15 11:43:17;;;;;;;33.53;15.20;;;1.10;77.80;;;;;;4218177;28;20038;-83
2022/12/15 11:46:01;;;;;;;26.95;13.35;;;1.10;77.30;;;;;;4217300;28;20119;-83
2022/12/15 11:48:25;;;;;;;29.00;13.45;;;1.20;77.20;;;;;;4221811;28;20047;-83
2022/12/15 11:51:22;;;;;;;24.88;12.00;;;1.20;77.20;;;;;;4230387;27;20035;-83
2022/12/15 11:54:14;;;;;;;27.23;12.38;;;1.20;77.30;;;;;;4225163;28;20209;-83
2022/12/15 11:56:38;;;;;;;25.25;12.02;;;1.30;77.50;;;;;;4211609;28;20035;-85
2022/12/15 11:59:14;;;;;;;25.40;12.32;;;1.30;77.60;;;;;;4217393;28;20030;-83
2022/12/15 12:01:54;;;;;;;25.83;12.77;;;1.40;77.70;;;;;;4214729;28;20554;-84
2022/12/15 12:04:41;;;;;;;25.48;11.98;;;1.50;77.80;;;;;;4222165;28;20100;-84
2022/12/15 12:07:19;;;;;;;25.10;11.07;;;1.50;77.70;;;;;;4220320;28;20042;-84
2022/12/15 12:09:55;;;;;;;28.23;12.65;;;1.60;77.70;;;;;;4225276;27;20080;-84
2022/12/15 12:12:24;;;;;;;27.80;12.88;;;1.60;77.60;;;;;;4231191;28;20069;-84
2022/12/15 12:14:54;;;;;;;28.17;13.55;;;1.70;77.70;;;;;;4214278;28;20074;-84
2022/12/15 12:17:32;;;;;;;35.63;15.25;;;1.70;77.60;;;;;;4216465;28;20043;-84
2022/12/15 12:19:58;;;;;;;29.23;13.38;;;1.80;77.50;;;;;;4217264;28;20045;-84
2022/12/15 12:22:23;;;;;;;27.58;12.15;;;1.80;77.40;;;;;;4212179;27;20058;-84
2022/12/15 12:24:59;;;;;;;26.40;12.52;;;1.80;77.30;;;;;;4218656;28;20157;-83
2022/12/15 12:27:39;;;;;;;24.67;11.45;;;1.80;77.10;;;;;;4211177;28;20023;-84
2022/12/15 12:30:11;;;;;;;25.48;12.05;;;1.90;77.00;;;;;;4217868;28;20042;-84
2022/12/15 12:32:52;;;;;;;27.05;11.82;;;1.90;77.00;;;;;;4213376;28;20526;-84
2022/12/15 12:35:21;;;;;;;28.83;11.77;;;1.90;77.00;;;;;;4221426;28;20037;-84
2022/12/15 12:37:45;;;;;;;26.77;13.18;;;1.90;76.90;;;;;;4217766;27;20042;-84
2022/12/15 12:40:17;;;;;;;29.17;12.30;;;1.90;76.70;;;;;;4210506;28;20157;-84
2022/12/15 12:42:47;;;;;;;30.38;14.10;;;1.90;76.50;;;;;;4212149;28;20590;-84
2022/12/15 12:45:12;;;;;;;32.63;13.40;;;1.90;76.10;;;;;;4215594;28;20068;-84
2022/12/15 12:47:37;;;;;;;29.70;14.07;;;1.90;75.50;;;;;;4218413;28;20031;-84
2022/12/15 12:50:19;;;;;;;28.90;12.45;;;1.90;75.20;;;;;;4222699;28;20023;-83
2022/12/15 12:52:50;;;;;;;29.52;12.93;;;1.90;75.30;;;;;;4220069;28;20116;-84
2022/12/15 12:55:12;;;;;;;29.58;13.80;;;1.80;75.30;;;;;;4211335;28;20042;-84
2022/12/15 12:57:39;;;;;;;29.23;12.68;;;1.80;75.40;;;;;;4213663;28;20034;-84
2022/12/15 13:00:26;;;;;;;27.55;12.60;;;1.80;75.30;;;;;;4214437;28;20050;-84
2022/12/15 13:02:47;;;;;;;23.35;11.57;;;1.70;75.30;;;;;;4216044;27;20089;-84
2022/12/15 13:05:24;;;;;;;24.77;11.68;;;1.80;75.50;;;;;;4215212;28;20080;-84
2022/12/15 13:07:54;;;;;;;22.85;10.88;;;1.80;75.70;;;;;;4209016;28;20082;-84
2022/12/15 13:10:19;;;;;;;22.88;10.82;;;1.80;75.80;;;;;;4214576;28;20422;-84
2022/12/15 13:12:46;;;;;;;24.40;11.57;;;1.80;75.90;;;;;;4216597;28;20039;-86
2022/12/15 13:15:28;;;;;;;29.65;12.02;;;1.90;76.00;;;;;;4224547;28;20502;-86
2022/12/15 13:17:53;;;;;;;26.35;11.35;;;1.80;76.00;;;;;;4219210;28;20088;-87
2022/12/15 13:20:22;;;;;;;24.40;11.65;;;1.80;75.90;;;;;;4217763;27;20063;-86
2022/12/15 13:22:44;;;;;;;29.67;12.75;;;1.90;75.90;;;;;;4220876;27;20070;-86
2022/12/15 13:25:34;;;;;;;24.80;11.40;;;1.80;75.90;;;;;;4215310;28;20050;-86
2022/12/15 13:27:59;;;;;;;30.40;12.68;;;1.80;76.00;;;;;;4221413;27;20038;-86
2022/12/15 13:30:18;;;;;;;29.13;12.32;;;1.80;76.00;;;;;;4216628;28;20481;-86
2022/12/15 13:32:40;;;;;;;25.55;12.02;;;1.80;76.00;;;;;;4211143;28;20034;-87
2022/12/15 13:35:16;;;;;;;28.13;11.80;;;1.80;75.90;;;;;;4215240;28;20111;-86
2022/12/15 13:37:47;;;;;;;29.88;12.73;;;1.80;76.10;;;;;;4213151;28;20039;-85
2022/12/15 13:40:36;;;;;;;37.60;15.25;;;1.80;76.00;;;;;;4213421;28;20051;-85
2022/12/15 13:43:06;;;;;;;40.08;16.15;;;1.80;76.00;;;;;;4210539;28;20527;-84
2022/12/15 13:45:50;;;;;;;37.60;15.95;;;1.80;75.80;;;;;;4216201;28;20170;-86
2022/12/15 13:48:23;;;;;;;41.47;16.80;;;1.80;75.70;;;;;;4212433;28;20100;-86
2022/12/15 13:51:03;;;;;;;42.05;15.38;;;1.80;75.70;;;;;;4217197;28;20035;-85
2022/12/15 13:53:26;;;;;;;37.35;15.73;;;1.70;75.60;;;;;;4214493;28;20169;-86
2022/12/15 13:56:01;;;;;;;49.40;16.98;;;1.70;75.50;;;;;;4233202;28;20050;-86
2022/12/15 13:58:25;;;;;;;43.65;17.58;;;1.70;75.50;;;;;;4223053;28;20149;-85
2022/12/15 14:00:55;;;;;;;51.10;18.20;;;1.70;75.50;;;;;;4221691;28;20065;-86
2022/12/15 14:03:16;;;;;;;108.10;38.05;;;1.60;75.40;;;;;;4213893;27;20315;-85
2022/12/15 14:05:41;;;;;;;92.82;35.03;;;1.60;75.50;;;;;;4216493;28;20080;-85
2022/12/15 14:08:06;;;;;;;88.15;29.77;;;1.50;75.10;;;;;;4216819;27;20177;-86
2022/12/15 14:10:37;;;;;;;77.70;26.63;;;1.40;75.10;;;;;;4216687;27;20035;-86
2022/12/15 14:13:06;;;;;;;83.32;31.15;;;1.40;75.30;;;;;;4215445;27;20105;-85
2022/12/15 14:15:32;;;;;;;101.55;36.78;;;1.30;75.40;;;;;;4217109;27;20108;-86
2022/12/15 14:17:55;;;;;;;100.97;33.30;;;1.20;75.70;;;;;;4212217;28;20655;-86
2022/12/15 14:20:23;;;;;;;74.05;30.25;;;1.20;75.90;;;;;;4223963;27;20167;-85
2022/12/15 14:22:42;;;;;;;57.03;22.35;;;1.20;76.00;;;;;;4211626;28;20103;-85
2022/12/15 14:25:22;;;;;;;50.78;19.30;;;1.20;76.20;;;;;;4215767;28;20106;-85
2022/12/15 14:27:41;;;;;;;86.05;33.38;;;1.20;76.30;;;;;;4219317;27;20147;-85
2022/12/15 14:30:34;;;;;;;105.88;46.03;;;1.20;76.70;;;;;;4220395;28;20111;-86
2022/12/15 14:33:05;;;;;;;95.88;44.15;;;1.10;76.80;;;;;;4205137;27;20574;-85
2022/12/15 14:35:35;;;;;;;62.38;27.75;;;1.10;76.90;;;;;;4214609;27;20050;-86